Time;durP1;ratioP1;P1;durP2;ratioP2;P2;SDS_P1;SDS_P2;PMS_P1;PMS_P2;Temp;Humidity;BMP_temperature;BMP_pressure;BME280_temperature;BME280_humidity;BME280_pressure;Samples;Min_cycle;Max_cycle;Signal;HPM_P1;HPM_P2
2023/07/21 00:01:48;;;;;;;5.45;4.90;;;;;;;12.70;100.00;101121.88;4939362;29;20020;-94
2023/07/21 00:04:14;;;;;;;5.17;4.60;;;;;;;12.74;100.00;101128.38;4952959;29;20062;-94
2023/07/21 00:06:43;;;;;;;5.63;4.60;;;;;;;12.69;100.00;101126.44;4934719;29;20107;-94
2023/07/21 00:09:11;;;;;;;6.82;4.88;;;;;;;12.78;100.00;101131.31;4934696;29;20050;-94
2023/07/21 00:11:38;;;;;;;7.33;4.90;;;;;;;12.81;100.00;101134.28;4934612;29;20058;-93
2023/07/21 00:14:06;;;;;;;5.53;4.90;;;;;;;12.80;100.00;101129.97;4934095;29;20375;-93
2023/07/21 00:16:33;;;;;;;5.50;5.00;;;;;;;12.83;100.00;101134.03;4934235;29;20047;-93
2023/07/21 00:19:02;;;;;;;10.07;5.20;;;;;;;12.72;100.00;101117.84;4934484;29;20436;-94
2023/07/21 00:21:28;;;;;;;6.10;4.78;;;;;;;12.75;100.00;101123.78;4933379;29;20019;-93
2023/07/21 00:23:54;;;;;;;5.88;4.85;;;;;;;12.70;100.00;101120.00;4932697;29;20098;-94
2023/07/21 00:26:20;;;;;;;8.77;4.95;;;;;;;12.81;100.00;101136.19;4934049;29;20066;-93
2023/07/21 00:28:45;;;;;;;6.27;5.00;;;;;;;12.75;100.00;101118.41;4934583;29;20052;-93
2023/07/21 00:31:10;;;;;;;5.60;4.87;;;;;;;12.77;100.00;101111.69;4934168;29;20031;-93
2023/07/21 00:33:36;;;;;;;6.93;4.63;;;;;;;12.73;100.00;101105.25;4934269;29;20431;-93
2023/07/21 00:36:04;;;;;;;5.40;4.90;;;;;;;12.80;100.00;101116.53;4934522;29;20319;-93
2023/07/21 00:38:30;;;;;;;6.80;5.32;;;;;;;12.80;100.00;101110.34;4933760;29;20082;-93
2023/07/21 00:40:56;;;;;;;9.05;5.57;;;;;;;12.80;100.00;101113.03;4940752;29;20085;-93
2023/07/21 00:43:21;;;;;;;8.05;5.43;;;;;;;12.71;100.00;101105.47;4951906;29;20091;-93
2023/07/21 00:45:48;;;;;;;6.87;5.47;;;;;;;12.67;100.00;101104.41;4951215;29;20055;-92
2023/07/21 00:48:16;;;;;;;7.82;5.30;;;;;;;12.70;100.00;101108.44;4934045;29;20035;-92
2023/07/21 00:50:43;;;;;;;5.57;5.07;;;;;;;12.58;100.00;101095.25;4934080;29;20078;-93
2023/07/21 00:53:11;;;;;;;8.87;5.47;;;;;;;12.54;100.00;101096.84;4933767;29;20053;-93
2023/07/21 00:55:38;;;;;;;7.47;5.40;;;;;;;12.59;100.00;101096.84;4933759;29;20283;-94
2023/07/21 00:58:04;;;;;;;6.05;5.55;;;;;;;12.59;100.00;101106.81;4935271;29;20036;-92
2023/07/21 01:00:31;;;;;;;8.13;5.97;;;;;;;12.50;100.00;101095.78;4937620;29;20022;-93
2023/07/21 01:02:57;;;;;;;6.30;5.70;;;;;;;12.41;100.00;101093.56;4936032;29;20131;-93
2023/07/21 01:05:24;;;;;;;6.53;5.72;;;;;;;12.47;100.00;101089.03;4937887;29;20032;-93
2023/07/21 01:07:50;;;;;;;7.25;5.75;;;;;;;12.42;100.00;101086.31;4936882;29;20035;-93
2023/07/21 01:10:19;;;;;;;10.88;6.05;;;;;;;12.39;100.00;101087.66;4941543;29;20035;-93
2023/07/21 01:12:46;;;;;;;8.65;6.63;;;;;;;12.41;100.00;101090.09;4935922;29;20082;-93
2023/07/21 01:15:11;;;;;;;7.32;6.50;;;;;;;12.25;100.00;101070.41;4939014;29;20032;-93
2023/07/21 01:17:38;;;;;;;7.33;5.97;;;;;;;12.18;100.00;101062.59;4958656;29;20127;-94
2023/07/21 01:20:06;;;;;;;9.73;6.40;;;;;;;12.18;100.00;101070.66;4938248;29;20063;-92
2023/07/21 01:22:55;;;;;;;7.07;6.38;;;;;;;12.20;100.00;101078.44;4945913;29;20012;-93
2023/07/21 01:25:21;;;;;;;8.07;6.07;;;;;;;12.20;100.00;101084.63;4947330;29;20099;-93
2023/07/21 01:27:49;;;;;;;6.30;5.70;;;;;;;12.06;100.00;101072.72;4936798;29;20070;-92
2023/07/21 01:30:18;;;;;;;7.10;6.40;;;;;;;11.96;100.00;101046.59;4937422;29;20275;-92
2023/07/21 01:32:45;;;;;;;7.75;6.07;;;;;;;12.04;100.00;101073.00;4938303;29;20032;-93
2023/07/21 01:35:12;;;;;;;9.15;7.00;;;;;;;12.06;100.00;101072.72;4937290;29;20078;-93
2023/07/21 01:37:40;;;;;;;7.07;6.15;;;;;;;11.92;100.00;101057.06;4936539;29;20050;-92
2023/07/21 01:40:11;;;;;;;6.90;6.30;;;;;;;11.96;100.00;101070.78;4937239;29;20103;-93
2023/07/21 01:42:37;;;;;;;8.75;6.45;;;;;;;11.96;100.00;101066.22;4936229;29;20059;-93
2023/07/21 01:45:04;;;;;;;9.75;6.70;;;;;;;11.90;100.00;101058.41;4937150;29;20476;-93
2023/07/21 01:47:32;;;;;;;8.70;6.50;;;;;;;11.84;100.00;101054.91;4936282;29;20367;-92
2023/07/21 01:49:58;;;;;;;7.93;6.40;;;;;;;11.82;100.00;101051.66;4935448;29;20295;-94
2023/07/21 01:52:25;;;;;;;7.53;6.25;;;;;;;11.86;100.00;101062.69;4935623;29;20032;-92
2023/07/21 01:55:01;;;;;;;9.18;7.18;;;;;;;11.82;100.00;101062.41;4937576;29;20028;-93
2023/07/21 01:57:31;;;;;;;8.02;7.22;;;;;;;11.77;100.00;101046.25;4936155;29;20261;-92
2023/07/21 01:59:59;;;;;;;9.05;7.32;;;;;;;11.83;100.00;101047.91;4936958;29;20062;-93
2023/07/21 02:02:26;;;;;;;7.07;6.45;;;;;;;11.78;100.00;101042.50;4936066;29;20465;-93
2023/07/21 02:04:52;;;;;;;8.48;7.07;;;;;;;11.77;100.00;101040.88;4936663;29;20082;-92
2023/07/21 02:07:22;;;;;;;8.45;7.18;;;;;;;11.81;100.00;101050.84;4935889;29;20067;-93
2023/07/21 02:09:51;;;;;;;8.32;7.47;;;;;;;11.78;100.00;101055.94;4935276;29;20451;-93
2023/07/21 02:12:16;;;;;;;10.10;7.10;;;;;;;11.66;100.00;101035.47;4936003;29;20518;-94
2023/07/21 02:14:41;;;;;;;8.80;7.40;;;;;;;11.69;100.00;101046.72;4936552;29;20295;-94
2023/07/21 02:17:07;;;;;;;9.00;7.67;;;;;;;11.68;100.00;101048.63;4935817;29;20028;-92
2023/07/21 02:19:32;;;;;;;11.17;7.30;;;;;;;11.54;100.00;101029.47;4936359;29;20044;-93
2023/07/21 02:21:58;;;;;;;10.10;7.27;;;;;;;11.57;100.00;101039.69;4935867;29;20024;-93
2023/07/21 02:24:24;;;;;;;10.70;7.30;;;;;;;11.41;100.00;101025.38;4936118;29;20027;-92
2023/07/21 02:26:49;;;;;;;8.40;7.50;;;;;;;11.47;100.00;101045.03;4935446;29;20108;-93
2023/07/21 02:29:14;;;;;;;9.87;7.67;;;;;;;11.39;100.00;101026.69;4936346;29;20499;-94
2023/07/21 02:31:40;;;;;;;8.33;7.53;;;;;;;11.43;100.00;101044.69;4935651;29;20016;-93
2023/07/21 02:34:05;;;;;;;10.87;7.80;;;;;;;11.41;100.00;101033.41;4935095;29;20492;-93
2023/07/21 02:36:31;;;;;;;8.13;7.00;;;;;;;11.38;100.00;101046.53;4945759;29;20026;-92
2023/07/21 02:38:57;;;;;;;11.80;7.10;;;;;;;11.37;100.00;101043.06;4950454;29;20604;-92
2023/07/21 02:41:22;;;;;;;10.65;7.78;;;;;;;11.30;100.00;101037.94;4936493;29;20494;-93
2023/07/21 02:43:48;;;;;;;8.53;7.50;;;;;;;11.30;100.00;101029.06;4950625;29;20083;-92
2023/07/21 02:46:14;;;;;;;9.03;7.47;;;;;;;11.32;100.00;101035.78;4943241;29;20084;-93
2023/07/21 02:48:40;;;;;;;11.35;7.32;;;;;;;11.39;100.00;101035.56;4936280;28;20030;-92
2023/07/21 02:51:05;;;;;;;9.45;7.80;;;;;;;11.38;100.00;101030.44;4937058;29;20023;-91
2023/07/21 02:53:31;;;;;;;11.40;7.70;;;;;;;11.35;100.00;101027.22;4938820;29;20024;-93
2023/07/21 02:55:57;;;;;;;13.55;7.22;;;;;;;11.43;100.00;101038.53;4934656;29;20458;-92
2023/07/21 02:58:26;;;;;;;8.40;6.47;;;;;;;11.29;100.00;101014.84;4935530;29;20024;-92
2023/07/21 03:00:55;;;;;;;9.53;7.37;;;;;;;11.21;100.00;101015.31;4934037;29;20283;-93
2023/07/21 03:03:24;;;;;;;7.40;6.70;;;;;;;11.28;100.00;101034.69;4935525;29;20078;-92
2023/07/21 03:05:49;;;;;;;8.98;6.88;;;;;;;11.08;100.00;101005.03;4934433;29;20037;-93
2023/07/21 03:08:15;;;;;;;7.43;6.43;;;;;;;11.18;100.00;101037.28;4935921;29;20472;-93
2023/07/21 03:10:41;;;;;;;7.90;6.70;;;;;;;11.09;100.00;101025.44;4935159;29;20028;-93
2023/07/21 03:13:06;;;;;;;9.02;7.22;;;;;;;11.06;100.00;101024.88;4936011;29;20479;-93
2023/07/21 03:15:31;;;;;;;7.00;6.30;;;;;;;11.08;100.00;101037.22;4952429;29;20043;-93
2023/07/21 03:17:57;;;;;;;8.70;6.43;;;;;;;11.01;100.00;101032.06;4956680;29;20115;-93
2023/07/21 03:20:22;;;;;;;7.33;6.37;;;;;;;11.01;100.00;101032.06;4937715;29;20028;-94
2023/07/21 03:22:47;;;;;;;7.80;6.90;;;;;;;11.01;100.00;101045.47;4937949;29;20028;-93
2023/07/21 03:25:13;;;;;;;8.27;7.00;;;;;;;10.99;100.00;101039.56;4935165;29;20546;-92
2023/07/21 03:27:39;;;;;;;7.40;6.57;;;;;;;10.91;100.00;101032.78;4935166;29;20061;-91
2023/07/21 03:30:12;;;;;;;9.07;7.23;;;;;;;10.89;100.00;101045.63;4935879;29;20405;-91
2023/07/21 03:32:38;;;;;;;7.75;6.63;;;;;;;10.81;100.00;101021.97;4936190;29;20135;-91
2023/07/21 03:35:04;;;;;;;7.72;6.82;;;;;;;10.84;100.00;101038.38;4935398;29;20028;-92
2023/07/21 03:37:31;;;;;;;8.85;6.63;;;;;;;10.82;100.00;101035.13;4937406;28;20079;-92
2023/07/21 03:39:57;;;;;;;7.65;6.80;;;;;;;10.85;100.00;101039.16;4946882;29;20032;-92
2023/07/21 03:42:23;;;;;;;8.05;6.55;;;;;;;10.84;100.00;101040.22;4949515;29;20103;-92
2023/07/21 03:44:50;;;;;;;8.13;6.18;;;;;;;10.85;100.00;101039.16;4938758;29;20040;-90
2023/07/21 03:47:19;;;;;;;8.07;6.53;;;;;;;10.89;100.00;101027.66;4947046;29;20043;-93
2023/07/21 03:49:46;;;;;;;8.47;6.47;;;;;;;10.93;100.00;101036.03;4937373;29;20283;-92
2023/07/21 03:52:11;;;;;;;6.97;6.28;;;;;;;10.88;100.00;101028.72;4935242;29;20024;-93
2023/07/21 03:54:37;;;;;;;7.47;6.05;;;;;;;10.84;100.00;101019.59;4934659;29;20042;-93
2023/07/21 03:57:02;;;;;;;7.93;6.33;;;;;;;10.79;100.00;101008.81;4948588;29;20035;-93
2023/07/21 03:59:29;;;;;;;10.10;6.73;;;;;;;10.83;100.00;101015.28;4935845;29;20442;-92
2023/07/21 04:01:55;;;;;;;6.90;6.20;;;;;;;10.87;100.00;101026.31;4936900;29;20028;-93
2023/07/21 04:04:20;;;;;;;8.35;6.88;;;;;;;10.84;100.00;101021.44;4947278;29;20043;-93
2023/07/21 04:06:46;;;;;;;9.90;7.13;;;;;;;10.95;100.00;101033.06;4944752;29;20036;-93
2023/07/21 04:09:14;;;;;;;8.48;6.90;;;;;;;10.97;100.00;101031.75;4943841;29;20028;-93
2023/07/21 04:11:40;;;;;;;7.78;6.75;;;;;;;10.95;100.00;101019.66;4943948;29;20387;-93
2023/07/21 04:14:05;;;;;;;7.50;6.70;;;;;;;11.03;100.00;101025.38;4943988;29;20475;-94
2023/07/21 04:16:31;;;;;;;7.23;6.50;;;;;;;11.02;100.00;101009.56;4935337;29;20302;-92
2023/07/21 04:18:56;;;;;;;7.07;6.20;;;;;;;11.09;100.00;101017.38;4935154;29;20031;-93
2023/07/21 04:21:22;;;;;;;7.68;6.88;;;;;;;11.11;100.00;101016.03;4935221;29;20117;-93
2023/07/21 04:23:48;;;;;;;8.23;6.77;;;;;;;11.14;100.00;101007.50;4935048;29;20027;-92
2023/07/21 04:26:15;;;;;;;7.80;6.67;;;;;;;11.17;100.00;101004.31;4934479;29;20506;-93
2023/07/21 04:28:41;;;;;;;9.93;6.90;;;;;;;11.33;100.00;101005.19;4933736;29;20096;-93
2023/07/21 04:31:07;;;;;;;7.32;6.60;;;;;;;11.41;100.00;101006.59;4934124;29;20103;-93
2023/07/21 04:33:32;;;;;;;7.87;7.07;;;;;;;11.42;100.00;100994.00;4936344;29;20523;-92
2023/07/21 04:35:57;;;;;;;7.47;6.68;;;;;;;11.49;100.00;100994.59;4937473;29;20035;-93
2023/07/21 04:38:23;;;;;;;10.57;7.97;;;;;;;11.58;100.00;100998.38;4937632;29;20031;-93
2023/07/21 04:40:48;;;;;;;8.40;7.40;;;;;;;11.65;100.00;101000.81;4938290;29;20035;-93
2023/07/21 04:43:14;;;;;;;7.90;6.93;;;;;;;11.73;100.00;101005.72;4939429;29;20687;-92
2023/07/21 04:45:42;;;;;;;13.68;7.95;;;;;;;11.81;100.00;101001.72;4938090;29;20066;-93
2023/07/21 04:48:08;;;;;;;12.20;7.83;;;;;;;11.92;100.00;101006.06;4937339;29;20141;-93
2023/07/21 04:50:33;;;;;;;10.60;7.38;;;;;;;12.03;100.00;101000.78;4937432;29;20030;-93
2023/07/21 04:53:01;;;;;;;8.77;7.03;;;;;;;12.20;100.00;101001.34;4937229;29;20023;-93
2023/07/21 04:55:27;;;;;;;9.73;7.00;;;;;;;12.36;100.00;100993.34;4935926;29;20458;-94
2023/07/21 04:57:52;;;;;;;10.40;7.43;;;;;;;12.47;100.00;100997.66;4936764;29;20056;-94
2023/07/21 05:00:18;;;;;;;8.60;7.20;;;;;;;12.73;100.00;100992.31;4937507;29;20039;-92
2023/07/21 05:02:43;;;;;;;8.67;7.73;;;;;;;13.50;100.00;100996.03;4935945;29;20287;-93
2023/07/21 05:05:09;;;;;;;9.97;7.87;;;;;;;14.33;100.00;100997.28;4937567;29;20027;-94
2023/07/21 05:07:34;;;;;;;8.70;7.65;;;;;;;15.31;100.00;101008.44;4935089;28;20539;-95
2023/07/21 05:09:59;;;;;;;9.50;7.60;;;;;;;16.12;100.00;101002.41;4937340;29;20554;-94
2023/07/21 05:12:25;;;;;;;8.70;7.43;;;;;;;16.71;97.62;101004.75;4937125;29;20016;-95
2023/07/21 05:14:51;;;;;;;10.33;7.43;;;;;;;17.23;94.18;101010.16;4937082;29;20054;-93
2023/07/21 05:17:17;;;;;;;8.93;6.80;;;;;;;17.65;90.40;101013.72;4944106;29;20019;-95
2023/07/21 05:19:43;;;;;;;8.95;6.80;;;;;;;17.91;88.58;100996.13;4954034;28;20036;-94
2023/07/21 05:22:09;;;;;;;13.73;7.47;;;;;;;18.21;86.47;101000.13;4937547;29;20058;-95
2023/07/21 05:24:34;;;;;;;14.37;7.47;;;;;;;18.23;86.00;101002.50;4951801;29;20026;-94
2023/07/21 05:27:00;;;;;;;11.20;7.88;;;;;;;17.96;87.82;101004.94;4947111;29;20435;-94
2023/07/21 05:29:25;;;;;;;10.37;7.77;;;;;;;18.03;88.14;101001.06;4937432;29;20066;-93
2023/07/21 05:31:52;;;;;;;17.17;7.77;;;;;;;18.70;83.93;101007.69;4936635;29;20036;-95
2023/07/21 05:34:17;;;;;;;14.55;7.28;;;;;;;19.35;81.39;101011.75;4937352;29;20184;-94
2023/07/21 05:36:43;;;;;;;14.18;7.60;;;;;;;19.80;78.90;101010.00;4936516;29;20111;-95
2023/07/21 05:39:08;;;;;;;15.13;8.03;;;;;;;20.05;78.29;101013.09;4936699;29;20031;-95
2023/07/21 05:41:33;;;;;;;11.00;7.50;;;;;;;20.11;78.87;101020.78;4935150;29;20031;-96
2023/07/21 05:43:59;;;;;;;12.00;8.10;;;;;;;20.23;77.41;101017.44;4935722;29;20023;-95
2023/07/21 05:46:24;;;;;;;13.33;8.00;;;;;;;20.13;77.01;101023.19;4936289;29;20028;-94
2023/07/21 05:48:50;;;;;;;8.63;7.70;;;;;;;20.09;77.92;101017.56;4938617;29;20051;-95
2023/07/21 05:51:17;;;;;;;10.60;8.53;;;;;;;20.01;77.46;101012.94;4950190;29;20035;-95
2023/07/21 05:53:43;;;;;;;11.07;8.70;;;;;;;19.78;78.39;101010.28;4953944;29;20106;-96
2023/07/21 05:56:08;;;;;;;10.02;9.02;;;;;;;19.59;78.86;101015.19;4938081;29;20492;-96
2023/07/21 05:58:37;;;;;;;14.27;9.30;;;;;;;19.15;80.79;101023.97;4936811;29;20023;-96
2023/07/21 06:01:02;;;;;;;11.98;8.77;;;;;;;18.65;82.63;101010.50;4936662;29;20031;-95
2023/07/21 06:03:28;;;;;;;9.83;8.40;;;;;;;18.36;84.59;101023.38;4936589;29;20024;-96
2023/07/21 06:05:53;;;;;;;11.30;8.45;;;;;;;18.17;86.48;101010.75;4935709;29;20181;-96
2023/07/21 06:08:19;;;;;;;11.23;9.40;;;;;;;18.12;87.53;101010.06;4937105;29;20031;-96
2023/07/21 06:10:44;;;;;;;12.10;9.40;;;;;;;18.13;87.50;101014.38;4936531;29;20432;-95
2023/07/21 06:13:10;;;;;;;10.30;9.30;;;;;;;17.99;88.85;101020.66;4937151;29;20046;-96
2023/07/21 06:15:36;;;;;;;11.57;10.38;;;;;;;17.90;90.33;101008.88;4937790;29;20499;-96
2023/07/21 06:18:05;;;;;;;13.02;9.82;;;;;;;17.99;91.55;101014.41;4939419;29;20035;-95
2023/07/21 06:20:31;;;;;;;12.43;10.73;;;;;;;18.09;90.85;101016.91;4937030;29;20023;-95
2023/07/21 06:22:57;;;;;;;11.55;9.93;;;;;;;18.00;91.28;101022.25;4937874;29;20035;-95
2023/07/21 06:25:24;;;;;;;11.23;9.87;;;;;;;17.98;91.99;101013.63;4936978;29;20087;-96
2023/07/21 06:27:50;;;;;;;13.40;10.27;;;;;;;18.20;90.95;101022.09;4937005;29;20334;-96
2023/07/21 06:30:16;;;;;;;12.95;10.20;;;;;;;18.45;90.61;101018.81;4937356;29;20027;-96
2023/07/21 06:32:41;;;;;;;12.77;10.35;;;;;;;18.68;89.57;101016.13;4937346;29;20032;-96
2023/07/21 06:35:08;;;;;;;11.90;9.63;;;;;;;18.82;87.57;101007.91;4939154;29;20369;-96
2023/07/21 06:37:33;;;;;;;13.15;10.32;;;;;;;19.02;87.03;101019.41;4940036;29;20384;-96
2023/07/21 06:40:01;;;;;;;11.60;10.40;;;;;;;19.14;87.62;101013.41;4959807;29;20019;-96
2023/07/21 06:42:26;;;;;;;18.15;10.70;;;;;;;19.28;85.53;101016.03;4940103;28;20387;-96
2023/07/21 06:44:52;;;;;;;12.53;11.07;;;;;;;19.34;83.82;101012.09;4945203;29;20043;-95
2023/07/21 06:47:19;;;;;;;14.93;11.55;;;;;;;19.51;82.56;101014.88;4952879;29;20472;-96
2023/07/21 06:49:45;;;;;;;12.73;10.53;;;;;;;19.46;84.13;101008.75;4937003;29;20031;-96
2023/07/21 06:52:10;;;;;;;12.57;11.27;;;;;;;19.52;84.65;101007.50;4937765;29;20280;-96
2023/07/21 06:54:38;;;;;;;12.70;10.75;;;;;;;19.62;83.25;101007.22;4939262;29;20380;-95
2023/07/21 06:57:05;;;;;;;10.97;9.97;;;;;;;19.78;82.43;101004.84;4935981;29;20023;-96
2023/07/21 06:59:30;;;;;;;10.55;9.38;;;;;;;19.96;81.37;101003.03;4937484;29;20038;-96
2023/07/21 07:01:57;;;;;;;11.95;10.10;;;;;;;20.05;79.68;101008.47;4936796;29;20019;-96
2023/07/21 07:04:22;;;;;;;14.18;9.95;;;;;;;20.19;80.02;100997.44;4937889;29;20551;-95
2023/07/21 07:06:48;;;;;;;19.77;12.17;;;;;;;20.18;80.83;101017.59;4937865;29;20027;-95
2023/07/21 07:09:14;;;;;;;12.83;10.97;;;;;;;20.10;79.87;101010.22;4937667;29;20028;-96
2023/07/21 07:11:39;;;;;;;15.23;10.98;;;;;;;19.90;82.10;100993.41;4938305;29;20019;-96
2023/07/21 07:14:05;;;;;;;14.10;10.60;;;;;;;19.93;81.91;101009.09;4934850;29;20054;-96
2023/07/21 07:16:30;;;;;;;12.87;10.90;;;;;;;19.95;79.46;101012.28;4936092;29;20035;-96
2023/07/21 07:18:55;;;;;;;13.53;11.07;;;;;;;19.87;79.83;100990.50;4936272;29;20110;-96
2023/07/21 07:21:21;;;;;;;12.30;11.02;;;;;;;19.97;81.08;100998.38;4936303;29;20030;-96
2023/07/21 07:23:46;;;;;;;13.07;10.73;;;;;;;20.11;80.24;101003.69;4935718;29;20059;-96
2023/07/21 07:26:12;;;;;;;15.43;10.23;;;;;;;20.31;80.14;101006.91;4936164;29;20488;-96
2023/07/21 07:28:38;;;;;;;12.90;10.13;;;;;;;20.25;78.17;100995.38;4935760;29;20030;-95
2023/07/21 07:31:04;;;;;;;11.20;9.90;;;;;;;20.41;78.70;100995.69;4936063;29;20499;-95
2023/07/21 07:33:31;;;;;;;12.77;10.87;;;;;;;20.41;76.82;100987.50;4935595;29;20280;-96
2023/07/21 07:35:57;;;;;;;12.00;10.40;;;;;;;20.69;76.34;100984.47;4937244;29;20047;-96
2023/07/21 07:38:27;;;;;;;10.23;8.73;;;;;;;21.21;74.66;100997.16;4935891;29;20016;-96
2023/07/21 07:40:52;;;;;;;11.15;9.35;;;;;;;21.60;70.52;101006.16;4935979;29;20027;-96
2023/07/21 07:43:17;;;;;;;10.20;8.43;;;;;;;21.64;66.56;100998.09;4938228;29;20404;-96
2023/07/21 07:45:43;;;;;;;8.00;7.13;;;;;;;21.76;67.21;101005.59;4937330;29;20028;-96
2023/07/21 07:48:09;;;;;;;7.70;6.77;;;;;;;21.70;65.78;101004.97;4935865;29;20091;-96
2023/07/21 07:50:41;;;;;;;9.65;6.95;;;;;;;21.81;65.86;101010.84;4937147;29;20488;-96
2023/07/21 07:53:08;;;;;;;10.25;6.82;;;;;;;21.70;64.67;101006.91;4936624;29;20031;-95
2023/07/21 07:55:41;;;;;;;8.75;6.35;;;;;;;21.95;66.45;101018.81;4935368;29;20127;-95
2023/07/21 07:58:07;;;;;;;12.63;9.20;;;;;;;22.02;64.83;101013.59;4935835;29;20054;-96
2023/07/21 08:00:38;;;;;;;9.10;8.07;;;;;;;22.08;66.15;101017.75;4957742;29;20354;-94
2023/07/21 08:03:09;;;;;;;9.75;7.05;;;;;;;22.33;61.80;101008.88;4937876;29;20031;-95
2023/07/21 08:05:36;;;;;;;9.25;7.18;;;;;;;22.49;59.42;101015.34;4944930;29;20026;-96
2023/07/21 08:08:05;;;;;;;9.25;7.53;;;;;;;22.36;60.17;101010.94;4949610;29;20040;-96
2023/07/21 08:10:31;;;;;;;10.65;7.82;;;;;;;22.40;60.35;101003.69;4937981;29;20038;-96
2023/07/21 08:13:01;;;;;;;8.70;7.63;;;;;;;22.46;60.33;101010.56;4936532;28;20048;-93
2023/07/21 08:15:27;;;;;;;13.07;7.88;;;;;;;22.35;60.61;101009.34;4938010;29;20035;-96
2023/07/21 08:17:53;;;;;;;10.47;8.73;;;;;;;22.38;61.49;101000.50;4945365;29;20031;-96
2023/07/21 08:20:19;;;;;;;10.10;8.10;;;;;;;22.45;59.99;101008.19;4938892;29;20484;-96
2023/07/21 08:22:52;;;;;;;9.20;7.13;;;;;;;22.45;59.35;101002.72;4939991;29;20058;-96
2023/07/21 08:25:19;;;;;;;12.30;8.20;;;;;;;22.66;57.03;101003.50;4940044;29;20039;-96
2023/07/21 08:27:44;;;;;;;8.70;7.13;;;;;;;22.85;57.13;100999.44;4950768;29;20012;-94
2023/07/21 08:30:11;;;;;;;11.60;7.50;;;;;;;23.21;57.23;101002.59;4943035;28;20282;-94
2023/07/21 08:32:38;;;;;;;11.10;8.05;;;;;;;23.14;56.23;101001.22;4940925;29;20036;-94
2023/07/21 08:35:04;;;;;;;8.13;6.88;;;;;;;23.18;55.19;100997.81;4938360;29;20098;-96
2023/07/21 08:37:30;;;;;;;7.93;6.88;;;;;;;23.28;53.86;101002.84;4938024;29;20039;-96
2023/07/21 08:39:56;;;;;;;8.88;7.10;;;;;;;23.21;54.00;100994.41;4935881;29;20432;-96
2023/07/21 08:42:24;;;;;;;10.87;7.53;;;;;;;23.22;54.75;101002.28;4938181;29;20048;-96
2023/07/21 08:44:52;;;;;;;7.70;7.00;;;;;;;23.21;53.92;101003.41;4939919;29;20030;-96
2023/07/21 08:47:18;;;;;;;10.38;6.90;;;;;;;22.96;53.16;100994.34;4939420;29;20028;-96
2023/07/21 08:49:44;;;;;;;8.95;5.88;;;;;;;22.96;55.48;101006.06;4936461;29;20038;-95
2023/07/21 08:52:09;;;;;;;12.50;7.33;;;;;;;22.88;55.19;101006.16;4934263;29;20031;-94
2023/07/21 08:54:34;;;;;;;8.27;7.47;;;;;;;22.85;55.37;101004.91;4934855;29;20043;-96
2023/07/21 08:57:00;;;;;;;10.23;8.07;;;;;;;22.91;55.50;101005.50;4935936;28;20032;-96
2023/07/21 08:59:26;;;;;;;9.23;8.33;;;;;;;22.79;55.26;101007.06;4939682;29;20283;-96
2023/07/21 09:01:52;;;;;;;8.88;7.50;;;;;;;22.71;55.82;100999.75;4936208;29;20655;-96
2023/07/21 09:04:25;;;;;;;10.10;8.13;;;;;;;22.66;56.67;101008.13;4936868;29;20035;-96
2023/07/21 09:07:01;;;;;;;12.65;8.63;;;;;;;22.46;56.56;101002.38;4935541;29;20475;-96
2023/07/21 09:09:28;;;;;;;12.25;9.98;;;;;;;22.09;58.05;100983.09;4935357;29;20183;-96
2023/07/21 09:12:07;;;;;;;16.47;10.27;;;;;;;21.89;59.21;100998.28;4936255;29;20027;-96
2023/07/21 09:14:39;;;;;;;12.47;9.70;;;;;;;21.68;61.59;100998.28;4936075;29;20284;-96
2023/07/21 09:17:07;;;;;;;11.05;9.50;;;;;;;21.70;60.50;101006.91;4937191;29;20036;-96
2023/07/21 09:19:45;;;;;;;11.80;9.93;;;;;;;21.46;61.69;100991.94;4950108;29;20019;-95
2023/07/21 09:22:11;;;;;;;11.05;9.43;;;;;;;21.22;62.53;101000.69;4949035;29;20042;-94
2023/07/21 09:24:48;;;;;;;10.57;9.48;;;;;;;21.21;62.56;100996.38;4946417;29;20072;-96
2023/07/21 09:27:15;;;;;;;13.63;10.00;;;;;;;21.68;61.63;101004.50;4960960;29;20060;-96
2023/07/21 09:29:41;;;;;;;14.88;9.80;;;;;;;21.79;60.29;100996.75;4941911;29;20028;-96
2023/07/21 09:32:16;;;;;;;11.98;9.98;;;;;;;21.78;62.47;100997.88;4938719;29;20381;-96
2023/07/21 09:35:02;;;;;;;14.13;10.27;;;;;;;22.18;60.80;100997.44;4939614;29;20118;-96
2023/07/21 09:37:31;;;;;;;13.30;10.40;;;;;;;22.31;57.83;100992.84;4943307;29;20054;-96
2023/07/21 09:40:09;;;;;;;13.40;10.77;;;;;;;22.14;58.42;100973.91;4937923;29;21088;-96
2023/07/21 09:42:35;;;;;;;14.18;9.90;;;;;;;22.00;59.79;100974.94;4940678;28;20023;-96
2023/07/21 09:45:00;;;;;;;15.80;9.82;;;;;;;22.34;59.15;100985.91;4941719;29;20110;-96
2023/07/21 09:47:26;;;;;;;14.97;11.13;;;;;;;22.76;56.30;100976.88;4943975;29;20128;-95
2023/07/21 09:49:54;;;;;;;15.15;11.63;;;;;;;23.08;54.24;100977.19;4946429;29;20032;-96
2023/07/21 09:52:21;;;;;;;13.35;10.88;;;;;;;23.67;54.43;100981.44;4949346;28;20051;-96
2023/07/21 09:55:16;;;;;;;11.40;9.80;;;;;;;24.25;54.91;100974.94;4943653;29;20091;-96
2023/07/21 09:57:47;;;;;;;12.67;9.50;;;;;;;24.40;50.63;100961.63;4936608;29;20043;-94
2023/07/21 10:00:14;;;;;;;15.13;10.50;;;;;;;24.42;50.32;100973.03;4948714;29;20296;-96
2023/07/21 10:02:42;;;;;;;13.05;9.75;;;;;;;25.16;49.81;100971.81;4943430;29;20745;-95
2023/07/21 10:05:11;;;;;;;10.70;9.60;;;;;;;25.80;47.37;100967.03;4942414;29;20067;-96
2023/07/21 10:07:49;;;;;;;13.90;10.50;;;;;;;26.13;46.00;100971.28;4940192;29;20035;-95
2023/07/21 10:10:16;;;;;;;9.45;7.82;;;;;;;26.33;43.43;100970.50;4945507;29;20598;-96
2023/07/21 10:12:46;;;;;;;14.38;10.60;;;;;;;25.90;44.92;100975.88;4942069;29;20032;-96
2023/07/21 10:15:16;;;;;;;14.15;11.20;;;;;;;25.71;44.64;100977.44;4942200;28;20064;-95
2023/07/21 10:17:55;;;;;;;12.77;10.60;;;;;;;24.95;45.17;100968.22;4940915;29;20042;-96
2023/07/21 10:20:21;;;;;;;15.90;10.32;;;;;;;24.42;47.30;100973.03;4939475;29;20031;-96
2023/07/21 10:22:56;;;;;;;12.17;8.00;;;;;;;24.19;49.26;100965.38;4938784;29;20039;-96
2023/07/21 10:25:24;;;;;;;12.65;9.90;;;;;;;23.85;48.29;100972.97;4937405;29;20024;-95
2023/07/21 10:28:21;;;;;;;15.35;10.48;;;;;;;23.56;55.54;100980.28;4938175;29;20040;-94
2023/07/21 10:30:48;;;;;;;16.60;12.80;;;;;;;22.74;65.10;100971.75;4935635;28;20042;-95
2023/07/21 10:33:20;;;;;;;20.80;13.90;;;;;;;22.10;68.78;100971.00;4937231;29;20283;-94
2023/07/21 10:35:46;;;;;;;20.98;13.02;;;;;;;22.08;70.58;100968.63;4935363;28;20028;-94
2023/07/21 10:38:14;;;;;;;20.27;13.65;;;;;;;22.29;71.29;100992.38;4937286;29;20028;-94
2023/07/21 10:40:49;;;;;;;15.40;13.50;;;;;;;22.41;69.68;100980.72;4956400;29;20051;-94
2023/07/21 10:43:14;;;;;;;17.90;13.23;;;;;;;22.39;70.39;100978.31;4939766;29;20371;-94
2023/07/21 10:45:40;;;;;;;19.63;14.10;;;;;;;22.32;69.41;100988.19;4941832;29;20042;-94
2023/07/21 10:48:16;;;;;;;21.65;15.77;;;;;;;22.03;67.22;100989.84;4953947;29;20060;-95
2023/07/21 10:50:54;;;;;;;22.00;15.80;;;;;;;21.89;71.92;100988.19;4937110;29;20039;-96
2023/07/21 10:53:23;;;;;;;19.97;15.53;;;;;;;21.57;74.57;100987.69;4935569;29;20308;-94
2023/07/21 10:55:51;;;;;;;19.85;15.77;;;;;;;21.44;75.83;100986.00;4936723;29;20032;-95
2023/07/21 10:58:17;;;;;;;19.70;15.88;;;;;;;21.42;75.52;100985.53;4939188;29;20409;-95
2023/07/21 11:00:45;;;;;;;15.52;12.05;;;;;;;21.35;74.04;100991.50;4938194;28;20031;-95
2023/07/21 11:03:10;;;;;;;15.43;9.67;;;;;;;21.19;76.12;100988.50;4953773;28;20062;-95
2023/07/21 11:05:37;;;;;;;8.90;7.87;;;;;;;20.62;74.29;100979.50;4946005;29;20279;-96
2023/07/21 11:08:03;;;;;;;7.28;4.97;;;;;;;20.33;75.76;100982.88;4938148;29;20020;-95
2023/07/21 11:10:35;;;;;;;7.18;4.75;;;;;;;20.25;74.52;100979.06;4938337;29;20031;-95
2023/07/21 11:13:03;;;;;;;5.70;5.20;;;;;;;20.23;77.48;101008.50;4938554;29;20039;-96
2023/07/21 11:15:29;;;;;;;7.87;6.50;;;;;;;19.92;81.49;101023.81;4943033;29;20103;-95
2023/07/21 11:18:04;;;;;;;12.57;6.97;;;;;;;19.37;81.58;101020.41;4946983;29;20878;-95